sensor_id;sensor_type;location;lat;lon;timestamp;P1;durP1;ratioP1;P2;durP2;ratioP2
31686;SDS011;18285;51.330;4.946;2023-12-22T00:04:47;4.53;;;2.00;;
31686;SDS011;18285;51.330;4.946;2023-12-22T00:28:57;6.68;;;2.38;;
31686;SDS011;18285;51.330;4.946;2023-12-22T00:53:08;5.47;;;1.95;;
31686;SDS011;18285;51.330;4.946;2023-12-22T01:17:20;5.85;;;2.00;;
31686;SDS011;18285;51.330;4.946;2023-12-22T01:41:30;4.15;;;1.75;;
31686;SDS011;18285;51.330;4.946;2023-12-22T02:05:41;4.93;;;1.77;;
31686;SDS011;18285;51.330;4.946;2023-12-22T02:30:05;4.32;;;1.60;;
31686;SDS011;18285;51.330;4.946;2023-12-22T02:54:19;4.95;;;2.08;;
31686;SDS011;18285;51.330;4.946;2023-12-22T03:18:30;4.25;;;1.70;;
31686;SDS011;18285;51.330;4.946;2023-12-22T03:42:40;5.40;;;2.20;;
31686;SDS011;18285;51.330;4.946;2023-12-22T04:31:02;6.20;;;2.13;;
31686;SDS011;18285;51.330;4.946;2023-12-22T04:55:12;6.68;;;2.35;;
31686;SDS011;18285;51.330;4.946;2023-12-22T05:19:23;5.93;;;2.20;;
31686;SDS011;18285;51.330;4.946;2023-12-22T05:43:34;7.13;;;2.53;;
31686;SDS011;18285;51.330;4.946;2023-12-22T06:07:45;9.85;;;3.42;;
31686;SDS011;18285;51.330;4.946;2023-12-22T06:31:55;9.77;;;3.50;;
31686;SDS011;18285;51.330;4.946;2023-12-22T06:56:14;14.25;;;4.32;;
31686;SDS011;18285;51.330;4.946;2023-12-22T07:20:28;13.98;;;4.38;;
31686;SDS011;18285;51.330;4.946;2023-12-22T07:44:40;9.23;;;3.30;;
31686;SDS011;18285;51.330;4.946;2023-12-22T08:08:51;8.18;;;3.00;;
31686;SDS011;18285;51.330;4.946;2023-12-22T08:33:02;6.50;;;1.93;;
31686;SDS011;18285;51.330;4.946;2023-12-22T08:57:13;3.65;;;1.52;;
31686;SDS011;18285;51.330;4.946;2023-12-22T09:21:23;3.30;;;1.30;;
31686;SDS011;18285;51.330;4.946;2023-12-22T09:45:34;2.73;;;0.83;;
31686;SDS011;18285;51.330;4.946;2023-12-22T10:09:46;2.53;;;1.00;;
31686;SDS011;18285;51.330;4.946;2023-12-22T10:58:08;2.40;;;0.90;;
31686;SDS011;18285;51.330;4.946;2023-12-22T11:22:19;2.73;;;0.80;;
31686;SDS011;18285;51.330;4.946;2023-12-22T11:46:32;4.05;;;0.85;;
31686;SDS011;18285;51.330;4.946;2023-12-22T12:35:02;4.28;;;1.00;;
31686;SDS011;18285;51.330;4.946;2023-12-22T12:59:15;4.18;;;1.05;;
31686;SDS011;18285;51.330;4.946;2023-12-22T13:23:27;2.80;;;0.98;;
31686;SDS011;18285;51.330;4.946;2023-12-22T13:47:41;3.17;;;0.80;;
31686;SDS011;18285;51.330;4.946;2023-12-22T14:11:55;6.40;;;2.00;;
31686;SDS011;18285;51.330;4.946;2023-12-22T14:36:05;3.97;;;1.63;;
31686;SDS011;18285;51.330;4.946;2023-12-22T15:00:17;3.30;;;1.40;;
31686;SDS011;18285;51.330;4.946;2023-12-22T15:24:29;3.25;;;1.17;;
31686;SDS011;18285;51.330;4.946;2023-12-22T15:48:40;2.58;;;1.20;;
31686;SDS011;18285;51.330;4.946;2023-12-22T16:12:51;2.53;;;1.17;;
31686;SDS011;18285;51.330;4.946;2023-12-22T16:37:02;3.75;;;1.20;;
31686;SDS011;18285;51.330;4.946;2023-12-22T17:01:16;5.90;;;2.50;;
31686;SDS011;18285;51.330;4.946;2023-12-22T17:25:27;15.48;;;2.40;;
31686;SDS011;18285;51.330;4.946;2023-12-22T17:49:38;11.60;;;2.43;;
31686;SDS011;18285;51.330;4.946;2023-12-22T18:13:49;20.43;;;3.50;;
31686;SDS011;18285;51.330;4.946;2023-12-22T18:38:02;13.30;;;2.80;;
31686;SDS011;18285;51.330;4.946;2023-12-22T19:02:13;11.53;;;3.90;;
31686;SDS011;18285;51.330;4.946;2023-12-22T19:26:24;19.60;;;8.73;;
31686;SDS011;18285;51.330;4.946;2023-12-22T19:50:35;20.50;;;12.07;;
31686;SDS011;18285;51.330;4.946;2023-12-22T20:14:46;19.73;;;10.20;;
31686;SDS011;18285;51.330;4.946;2023-12-22T20:38:56;18.00;;;10.77;;
31686;SDS011;18285;51.330;4.946;2023-12-22T21:03:07;14.13;;;9.23;;
31686;SDS011;18285;51.330;4.946;2023-12-22T21:27:18;12.20;;;6.30;;
31686;SDS011;18285;51.330;4.946;2023-12-22T22:15:39;7.03;;;3.40;;
31686;SDS011;18285;51.330;4.946;2023-12-22T23:04:02;4.97;;;2.30;;
31686;SDS011;18285;51.330;4.946;2023-12-22T23:28:13;6.07;;;2.47;;
31686;SDS011;18285;51.330;4.946;2023-12-22T23:52:23;3.95;;;1.80;;
